createdAt,value
2018-12-09T00:01:21.940Z,8.50
2018-12-09T00:03:50.266Z,8.50
2018-12-09T00:06:18.453Z,8.50
2018-12-09T00:08:46.645Z,8.50
2018-12-09T00:11:14.852Z,8.50
2018-12-09T00:13:43.070Z,8.50
2018-12-09T00:16:11.203Z,8.50
2018-12-09T00:18:39.390Z,8.50
2018-12-09T00:21:07.620Z,8.40
2018-12-09T00:23:35.812Z,8.30
2018-12-09T00:26:03.946Z,8.20
2018-12-09T00:28:32.092Z,8.10
2018-12-09T00:31:00.302Z,8.00
2018-12-09T00:33:28.491Z,7.90
2018-12-09T00:35:56.704Z,7.80
2018-12-09T00:38:25.640Z,7.70
2018-12-09T00:40:53.830Z,7.70
2018-12-09T00:43:21.976Z,7.70
2018-12-09T00:45:50.109Z,7.70
2018-12-09T00:48:18.235Z,7.70
2018-12-09T00:50:46.374Z,7.60
2018-12-09T00:53:14.582Z,7.60
2018-12-09T00:55:42.779Z,7.70
2018-12-09T00:58:11.077Z,7.70
2018-12-09T01:00:39.968Z,7.80
2018-12-09T01:03:08.118Z,7.90
2018-12-09T01:05:36.310Z,7.90
2018-12-09T01:08:04.568Z,8.00
2018-12-09T01:10:32.714Z,8.00
2018-12-09T01:13:00.897Z,8.00
2018-12-09T01:15:29.217Z,8.00
2018-12-09T01:17:57.359Z,8.00
2018-12-09T01:20:25.579Z,8.00
2018-12-09T01:22:53.714Z,8.00
2018-12-09T01:25:21.989Z,7.90
2018-12-09T01:27:50.110Z,7.90
2018-12-09T01:30:18.340Z,7.90
2018-12-09T01:32:46.688Z,7.90
2018-12-09T01:35:14.882Z,7.90
2018-12-09T01:37:43.083Z,7.90
2018-12-09T01:40:11.221Z,7.80
2018-12-09T01:42:39.432Z,7.80
2018-12-09T01:45:07.739Z,7.80
2018-12-09T01:47:36.282Z,7.80
2018-12-09T01:50:05.799Z,7.70
2018-12-09T01:52:34.013Z,7.70
2018-12-09T01:55:02.156Z,7.70
2018-12-09T01:57:30.277Z,7.70
2018-12-09T01:59:58.412Z,7.70
2018-12-09T02:02:26.551Z,7.70
2018-12-09T02:04:54.692Z,7.60
2018-12-09T02:07:22.854Z,7.60
2018-12-09T02:09:51.456Z,7.50
2018-12-09T02:12:19.591Z,7.50
2018-12-09T02:14:47.817Z,7.40
2018-12-09T02:17:16.177Z,7.40
2018-12-09T02:19:44.403Z,7.40
2018-12-09T02:22:12.646Z,7.40
2018-12-09T02:24:40.970Z,7.40
2018-12-09T02:27:11.800Z,7.40
2018-12-09T02:29:40.183Z,7.40
2018-12-09T02:32:08.809Z,7.40
2018-12-09T02:34:36.951Z,7.40
2018-12-09T02:37:05.498Z,7.40
2018-12-09T02:39:34.015Z,7.40
2018-12-09T02:42:02.208Z,7.40
2018-12-09T02:44:30.513Z,7.40
2018-12-09T02:46:58.661Z,7.40
2018-12-09T02:49:26.934Z,7.40
2018-12-09T02:51:55.147Z,7.40
2018-12-09T02:54:24.856Z,7.40
2018-12-09T02:56:53.058Z,7.50
2018-12-09T02:59:21.202Z,7.50
2018-12-09T03:01:49.401Z,7.50
2018-12-09T03:04:17.597Z,7.50
2018-12-09T03:06:45.876Z,7.50
2018-12-09T03:09:14.298Z,7.50
2018-12-09T03:11:42.440Z,7.50
2018-12-09T03:14:10.572Z,7.50
2018-12-09T03:16:39.306Z,7.50
2018-12-09T03:19:07.595Z,7.50
2018-12-09T03:21:35.726Z,7.40
2018-12-09T03:24:04.075Z,7.40
2018-12-09T03:26:32.345Z,7.40
2018-12-09T03:29:00.636Z,7.30
2018-12-09T03:31:28.767Z,7.20
2018-12-09T03:33:57.055Z,7.20
2018-12-09T03:36:25.263Z,7.10
2018-12-09T03:38:53.756Z,7.20
2018-12-09T03:41:22.124Z,7.20
2018-12-09T03:43:50.413Z,7.30
2018-12-09T03:46:18.628Z,7.30
2018-12-09T03:48:46.882Z,7.30
2018-12-09T03:51:15.117Z,7.30
2018-12-09T03:53:43.310Z,7.20
2018-12-09T03:56:11.673Z,7.10
2018-12-09T03:58:39.967Z,7.10
2018-12-09T04:01:08.182Z,7.10
2018-12-09T04:03:36.892Z,7.20
2018-12-09T04:06:05.169Z,7.20
2018-12-09T04:08:33.448Z,7.20
2018-12-09T04:11:01.632Z,7.20
2018-12-09T04:13:29.899Z,7.10
2018-12-09T04:15:58.223Z,7.10
2018-12-09T04:18:26.519Z,7.10
2018-12-09T04:20:54.733Z,7.10
2018-12-09T04:23:22.896Z,7.00
2018-12-09T04:25:51.830Z,7.00
2018-12-09T04:28:20.041Z,6.90
2018-12-09T04:30:48.280Z,6.90
2018-12-09T04:33:16.477Z,6.90
2018-12-09T04:35:44.593Z,6.80
2018-12-09T04:38:12.810Z,6.80
2018-12-09T04:40:40.962Z,6.70
2018-12-09T04:43:09.253Z,6.70
2018-12-09T04:45:37.387Z,6.70
2018-12-09T04:48:05.794Z,6.70
2018-12-09T04:50:34.541Z,6.70
2018-12-09T04:53:02.864Z,6.60
2018-12-09T04:55:31.082Z,6.60
2018-12-09T04:57:59.741Z,6.60
2018-12-09T05:00:39.894Z,6.60
2018-12-09T05:03:08.085Z,6.70
2018-12-09T05:05:36.285Z,6.70
2018-12-09T05:08:04.517Z,6.70
2018-12-09T05:10:33.923Z,6.80
2018-12-09T05:13:02.248Z,6.80
2018-12-09T05:15:30.376Z,6.90
2018-12-09T05:17:58.597Z,6.90
2018-12-09T05:20:26.844Z,7.00
2018-12-09T05:22:55.066Z,7.10
2018-12-09T05:25:23.265Z,7.10
2018-12-09T05:27:51.424Z,7.10
2018-12-09T05:30:19.650Z,7.10
2018-12-09T05:32:47.790Z,7.10
2018-12-09T05:35:15.996Z,7.20
2018-12-09T05:37:44.839Z,7.20
2018-12-09T05:40:12.959Z,7.20
2018-12-09T05:42:41.144Z,7.20
2018-12-09T05:45:09.314Z,7.20
2018-12-09T05:47:38.925Z,7.20
2018-12-09T05:50:07.224Z,7.20
2018-12-09T05:52:35.494Z,7.20
2018-12-09T05:55:05.156Z,7.20
2018-12-09T05:57:33.335Z,7.10
2018-12-09T06:00:01.906Z,7.10
2018-12-09T06:02:41.987Z,7.10
2018-12-09T06:05:10.134Z,7.10
2018-12-09T06:07:38.269Z,7.10
2018-12-09T06:10:07.247Z,7.10
2018-12-09T06:12:35.562Z,7.10
2018-12-09T06:15:04.276Z,7.10
2018-12-09T06:17:32.698Z,7.10
2018-12-09T06:20:01.545Z,7.10
2018-12-09T06:22:29.738Z,7.00
2018-12-09T06:24:57.861Z,6.90
2018-12-09T06:27:26.006Z,6.90
2018-12-09T06:29:54.149Z,6.90
2018-12-09T06:32:25.517Z,6.80
2018-12-09T06:34:53.664Z,6.80
2018-12-09T06:37:21.784Z,6.80
2018-12-09T06:39:49.938Z,6.80
2018-12-09T06:42:18.425Z,6.80
2018-12-09T06:44:46.608Z,6.80
2018-12-09T06:47:14.805Z,6.90
2018-12-09T06:49:43.006Z,7.00
2018-12-09T06:52:11.135Z,7.00
2018-12-09T06:54:39.390Z,7.00
2018-12-09T06:57:07.513Z,7.10
2018-12-09T06:59:35.727Z,7.10
2018-12-09T07:02:03.949Z,7.10
2018-12-09T07:04:32.077Z,7.20
2018-12-09T07:07:00.709Z,7.20
2018-12-09T07:09:28.846Z,7.20
2018-12-09T07:11:57.196Z,7.20
2018-12-09T07:14:25.686Z,7.20
2018-12-09T07:16:54.111Z,7.10
2018-12-09T07:19:22.238Z,7.00
2018-12-09T07:21:50.377Z,7.00
2018-12-09T07:24:18.590Z,6.90
2018-12-09T07:26:46.807Z,6.90
2018-12-09T07:29:15.096Z,6.80
2018-12-09T07:31:43.286Z,6.80
2018-12-09T07:34:11.420Z,6.80
2018-12-09T07:36:39.595Z,6.90
2018-12-09T07:39:07.722Z,6.90
2018-12-09T07:41:35.866Z,6.90
2018-12-09T07:44:04.102Z,6.90
2018-12-09T07:46:32.394Z,6.90
2018-12-09T07:49:00.603Z,6.90
2018-12-09T07:51:28.776Z,6.90
2018-12-09T07:53:56.905Z,6.80
2018-12-09T07:56:25.321Z,6.80
2018-12-09T07:58:53.695Z,6.80
2018-12-09T08:01:21.821Z,6.80
2018-12-09T08:03:50.121Z,7.00
2018-12-09T08:06:18.738Z,7.10
2018-12-09T08:08:47.010Z,7.20
2018-12-09T08:11:15.274Z,7.30
2018-12-09T08:13:43.444Z,7.40
2018-12-09T08:16:11.589Z,7.40
2018-12-09T08:18:39.827Z,7.40
2018-12-09T08:21:09.223Z,7.30
2018-12-09T08:23:37.474Z,7.30
2018-12-09T08:26:05.650Z,7.40
2018-12-09T08:28:33.959Z,7.50
2018-12-09T08:31:02.088Z,7.60
2018-12-09T08:33:30.322Z,7.80
2018-12-09T08:35:58.772Z,8.00
2018-12-09T08:38:27.052Z,8.20
2018-12-09T08:40:55.262Z,8.40
2018-12-09T08:43:23.524Z,8.30
2018-12-09T08:45:51.751Z,8.10
2018-12-09T08:48:19.881Z,8.00
2018-12-09T08:50:48.254Z,7.90
2018-12-09T08:53:16.433Z,7.70
2018-12-09T08:55:44.627Z,7.70
2018-12-09T08:58:12.795Z,7.70
2018-12-09T09:00:41.237Z,7.70
2018-12-09T09:03:09.406Z,7.70
2018-12-09T09:05:37.699Z,7.70
2018-12-09T09:08:05.971Z,7.80
2018-12-09T09:10:34.102Z,7.80
2018-12-09T09:13:02.356Z,7.80
2018-12-09T09:15:30.500Z,8.20
2018-12-09T09:17:58.825Z,8.70
2018-12-09T09:20:27.002Z,8.90
2018-12-09T09:22:55.272Z,8.80
2018-12-09T09:25:23.409Z,8.60
2018-12-09T09:27:51.556Z,8.30
2018-12-09T09:30:19.728Z,8.20
2018-12-09T09:32:48.634Z,8.10
2018-12-09T09:35:16.839Z,8.10
2018-12-09T09:37:45.015Z,8.00
2018-12-09T09:40:13.300Z,8.00
2018-12-09T09:42:41.448Z,8.00
2018-12-09T09:45:09.693Z,8.00
2018-12-09T09:47:37.824Z,7.90
2018-12-09T09:50:06.130Z,8.00
2018-12-09T09:52:34.268Z,8.00
2018-12-09T09:55:02.502Z,8.10
2018-12-09T09:57:31.562Z,8.10
2018-12-09T09:59:59.696Z,8.50
2018-12-09T10:02:28.013Z,8.90
2018-12-09T10:04:56.167Z,9.10
2018-12-09T10:07:24.302Z,9.00
2018-12-09T10:09:52.529Z,9.00
2018-12-09T10:12:20.662Z,8.90
2018-12-09T10:14:48.808Z,8.90
2018-12-09T10:17:16.983Z,9.00
2018-12-09T10:19:45.118Z,9.20
2018-12-09T10:22:13.333Z,9.00
2018-12-09T10:24:41.529Z,8.30
2018-12-09T10:27:09.665Z,7.70
2018-12-09T10:29:38.059Z,7.50
2018-12-09T10:32:06.286Z,7.60
2018-12-09T10:34:38.760Z,7.70
2018-12-09T10:37:04.803Z,7.90
2018-12-09T10:39:32.929Z,8.20
2018-12-09T10:42:01.070Z,8.40
2018-12-09T10:44:29.210Z,8.60
2018-12-09T10:46:57.401Z,8.70
2018-12-09T10:49:25.565Z,8.50
2018-12-09T10:51:53.694Z,8.40
2018-12-09T10:54:21.842Z,8.30
2018-12-09T10:56:49.986Z,8.20
2018-12-09T10:59:18.108Z,8.00
2018-12-09T11:01:53.437Z,7.90
2018-12-09T11:04:21.636Z,7.70
2018-12-09T11:06:49.778Z,7.60
2018-12-09T11:09:17.913Z,7.60
2018-12-09T11:11:46.626Z,7.60
2018-12-09T11:14:14.813Z,7.70
2018-12-09T11:16:43.858Z,7.80
2018-12-09T11:19:11.989Z,8.00
2018-12-09T11:21:40.108Z,8.10
2018-12-09T11:24:08.296Z,8.10
2018-12-09T11:26:36.460Z,8.20
2018-12-09T11:29:04.654Z,8.30
2018-12-09T11:31:32.939Z,8.40
2018-12-09T11:34:01.304Z,8.50
2018-12-09T11:36:29.445Z,8.50
2018-12-09T11:38:57.599Z,8.50
2018-12-09T11:41:25.856Z,8.50
2018-12-09T11:43:54.242Z,8.50
2018-12-09T11:46:22.523Z,8.50
2018-12-09T11:48:50.743Z,8.50
2018-12-09T11:51:18.978Z,8.50
2018-12-09T11:53:47.166Z,8.40
2018-12-09T11:56:15.491Z,8.50
2018-12-09T11:58:43.626Z,8.50
2018-12-09T12:01:11.923Z,8.50
2018-12-09T12:03:40.142Z,8.60
2018-12-09T12:06:08.491Z,8.60
2018-12-09T12:08:36.681Z,8.70
2018-12-09T12:11:05.079Z,8.80
2018-12-09T12:13:33.189Z,8.90
2018-12-09T12:16:01.349Z,8.90
2018-12-09T12:18:29.723Z,8.90
2018-12-09T12:20:57.989Z,8.80
2018-12-09T12:23:26.143Z,8.80
2018-12-09T12:25:55.063Z,8.70
2018-12-09T12:28:23.196Z,8.70
2018-12-09T12:30:51.338Z,8.70
2018-12-09T12:33:19.871Z,8.70
2018-12-09T12:35:48.010Z,8.70
2018-12-09T12:38:16.750Z,8.70
2018-12-09T12:40:45.257Z,8.70
2018-12-09T12:43:13.560Z,8.80
2018-12-09T12:45:41.695Z,8.90
2018-12-09T12:48:09.824Z,9.00
2018-12-09T12:50:38.164Z,9.10
2018-12-09T12:53:06.505Z,9.30
2018-12-09T12:55:34.705Z,9.40
2018-12-09T12:58:02.867Z,9.50
2018-12-09T13:00:31.022Z,9.50
2018-12-09T13:02:59.145Z,9.30
2018-12-09T13:05:27.293Z,9.10
2018-12-09T13:07:55.837Z,9.00
2018-12-09T13:10:24.235Z,8.80
2018-12-09T13:12:52.354Z,8.70
2018-12-09T13:15:20.493Z,8.70
2018-12-09T13:17:48.702Z,8.70
2018-12-09T13:20:17.419Z,8.70
2018-12-09T13:22:45.592Z,8.80
2018-12-09T13:25:13.735Z,8.70
2018-12-09T13:27:42.261Z,8.60
2018-12-09T13:30:10.485Z,8.60
2018-12-09T13:32:38.633Z,8.60
2018-12-09T13:35:06.788Z,8.40
2018-12-09T13:37:34.920Z,8.30
2018-12-09T13:40:03.148Z,8.30
2018-12-09T13:42:31.443Z,8.20
2018-12-09T13:44:59.648Z,8.20
2018-12-09T13:47:27.791Z,8.20
2018-12-09T13:49:55.920Z,8.30
2018-12-09T13:52:24.058Z,8.20
2018-12-09T13:54:52.202Z,8.20
2018-12-09T13:57:20.435Z,8.20
2018-12-09T13:59:48.840Z,8.20
2018-12-09T14:02:16.965Z,8.30
2018-12-09T14:04:45.104Z,8.20
2018-12-09T14:07:13.247Z,8.20
2018-12-09T14:09:41.382Z,8.10
2018-12-09T14:12:09.719Z,8.10
2018-12-09T14:14:37.962Z,8.00
2018-12-09T14:17:06.389Z,8.00
2018-12-09T14:19:34.606Z,8.00
2018-12-09T14:22:02.794Z,8.00
2018-12-09T14:24:31.063Z,8.00
2018-12-09T14:26:59.203Z,8.00
2018-12-09T14:29:27.707Z,8.00
2018-12-09T14:31:56.484Z,8.00
2018-12-09T14:34:24.630Z,8.10
2018-12-09T14:36:52.755Z,8.10
2018-12-09T14:39:20.942Z,8.20
2018-12-09T14:41:49.091Z,8.20
2018-12-09T14:44:17.307Z,8.10
2018-12-09T14:46:45.448Z,8.00
2018-12-09T14:49:13.724Z,8.00
2018-12-09T14:51:43.051Z,8.00
2018-12-09T14:54:11.206Z,7.90
2018-12-09T14:56:40.203Z,7.80
2018-12-09T14:59:08.340Z,7.70
2018-12-09T15:01:36.494Z,7.60
2018-12-09T15:04:04.691Z,7.60
2018-12-09T15:06:32.825Z,7.70
2018-12-09T15:09:00.962Z,7.80
2018-12-09T15:11:29.180Z,7.80
2018-12-09T15:13:57.317Z,7.70
2018-12-09T15:16:25.459Z,7.70
2018-12-09T15:18:53.801Z,7.70
2018-12-09T15:21:22.059Z,7.70
2018-12-09T15:23:50.228Z,7.70
2018-12-09T15:26:18.371Z,7.70
2018-12-09T15:28:46.593Z,7.60
2018-12-09T15:31:15.762Z,7.50
2018-12-09T15:33:43.915Z,7.50
2018-12-09T15:36:12.057Z,7.50
2018-12-09T15:38:40.394Z,7.50
2018-12-09T15:41:08.560Z,7.50
2018-12-09T15:43:36.699Z,7.40
2018-12-09T15:46:04.872Z,7.40
2018-12-09T15:48:33.022Z,7.40
2018-12-09T15:51:01.545Z,7.40
2018-12-09T15:53:29.727Z,7.40
2018-12-09T15:55:57.848Z,7.30
2018-12-09T15:58:26.104Z,7.40
2018-12-09T16:00:55.592Z,7.40
2018-12-09T16:03:23.784Z,7.40
2018-12-09T16:05:52.042Z,7.40
2018-12-09T16:08:20.197Z,7.40
2018-12-09T16:10:48.348Z,7.40
2018-12-09T16:13:16.594Z,7.40
2018-12-09T16:15:44.758Z,7.40
2018-12-09T16:18:12.894Z,7.50
2018-12-09T16:20:41.028Z,7.40
2018-12-09T16:23:09.198Z,7.40
2018-12-09T16:25:38.375Z,7.40
2018-12-09T16:28:06.547Z,7.40
2018-12-09T16:30:34.802Z,7.30
2018-12-09T16:33:03.028Z,7.20
2018-12-09T16:35:31.364Z,7.10
2018-12-09T16:37:59.593Z,7.10
2018-12-09T16:40:28.480Z,7.00
2018-12-09T16:42:56.625Z,6.90
2018-12-09T16:45:24.762Z,7.00
2018-12-09T16:47:52.906Z,7.00
2018-12-09T16:50:21.107Z,6.90
2018-12-09T16:52:49.251Z,6.80
2018-12-09T16:55:17.412Z,6.50
2018-12-09T16:57:45.558Z,6.40
2018-12-09T17:00:13.718Z,6.30
2018-12-09T17:02:41.849Z,6.20
2018-12-09T17:05:09.981Z,6.30
2018-12-09T17:07:42.222Z,6.20
2018-12-09T17:10:08.774Z,6.20
2018-12-09T17:12:37.038Z,6.20
2018-12-09T17:15:06.074Z,6.30
2018-12-09T17:17:34.244Z,6.50
2018-12-09T17:20:06.368Z,6.60
2018-12-09T17:22:33.037Z,6.50
2018-12-09T17:25:01.205Z,6.40
2018-12-09T17:27:29.499Z,6.30
2018-12-09T17:29:57.649Z,6.30
2018-12-09T17:32:25.787Z,6.20
2018-12-09T17:34:54.694Z,6.20
2018-12-09T17:37:22.888Z,6.10
2018-12-09T17:39:51.023Z,6.20
2018-12-09T17:42:19.223Z,6.20
2018-12-09T17:44:47.361Z,6.30
2018-12-09T17:47:15.503Z,6.40
2018-12-09T17:49:43.703Z,6.30
2018-12-09T17:52:11.873Z,6.00
2018-12-09T17:54:40.018Z,5.70
2018-12-09T17:57:08.324Z,5.70
2018-12-09T17:59:36.478Z,5.70
2018-12-09T18:02:05.159Z,5.70
2018-12-09T18:04:33.306Z,5.70
2018-12-09T18:07:01.531Z,5.80
2018-12-09T18:09:29.671Z,5.80
2018-12-09T18:11:57.879Z,5.90
2018-12-09T18:14:26.045Z,6.00
2018-12-09T18:16:54.476Z,6.10
2018-12-09T18:19:22.640Z,6.20
2018-12-09T18:21:50.936Z,6.30
2018-12-09T18:24:19.084Z,6.30
2018-12-09T18:26:47.762Z,6.20
2018-12-09T18:29:16.011Z,6.10
2018-12-09T18:31:44.226Z,6.00
2018-12-09T18:34:12.366Z,6.10
2018-12-09T18:36:40.604Z,6.20
2018-12-09T18:39:08.738Z,6.30
2018-12-09T18:41:37.035Z,6.30
2018-12-09T18:44:05.275Z,6.40
2018-12-09T18:46:33.561Z,6.40
2018-12-09T18:49:01.806Z,6.40
2018-12-09T18:51:29.993Z,6.30
2018-12-09T18:53:58.232Z,6.20
2018-12-09T18:56:26.393Z,6.10
2018-12-09T18:58:54.542Z,6.30
2018-12-09T19:01:23.802Z,6.40
2018-12-09T19:03:51.972Z,6.50
2018-12-09T19:06:20.125Z,6.50
2018-12-09T19:08:48.498Z,6.50
2018-12-09T19:11:17.059Z,6.50
2018-12-09T19:13:45.273Z,6.60
2018-12-09T19:16:13.411Z,6.60
2018-12-09T19:18:41.578Z,6.70
2018-12-09T19:21:09.948Z,6.70
2018-12-09T19:23:38.190Z,6.70
2018-12-09T19:26:06.407Z,6.80
2018-12-09T19:28:34.699Z,6.50
2018-12-09T19:31:02.987Z,6.00
2018-12-09T19:33:31.297Z,5.70
2018-12-09T19:35:59.501Z,5.60
2018-12-09T19:38:27.654Z,5.50
2018-12-09T19:40:55.800Z,5.50
2018-12-09T19:43:24.430Z,5.50
2018-12-09T19:45:52.668Z,5.40
2018-12-09T19:48:20.802Z,5.40
2018-12-09T19:50:49.020Z,5.50
2018-12-09T19:53:17.238Z,5.50
2018-12-09T19:55:45.509Z,5.50
2018-12-09T19:58:13.711Z,5.70
2018-12-09T20:00:41.903Z,5.80
2018-12-09T20:03:10.124Z,5.90
2018-12-09T20:05:38.266Z,6.10
2018-12-09T20:08:06.434Z,6.20
2018-12-09T20:10:34.587Z,6.20
2018-12-09T20:13:03.745Z,6.20
2018-12-09T20:15:32.303Z,6.00
2018-12-09T20:18:00.475Z,5.90
2018-12-09T20:20:28.619Z,5.80
2018-12-09T20:22:57.136Z,5.90
2018-12-09T20:25:25.391Z,6.00
2018-12-09T20:27:53.690Z,5.90
2018-12-09T20:30:21.824Z,5.70
2018-12-09T20:32:49.948Z,5.50
2018-12-09T20:35:18.205Z,5.40
2018-12-09T20:39:53.465Z,5.30
2018-12-09T20:42:21.641Z,5.40
2018-12-09T20:44:49.760Z,5.30
2018-12-09T20:47:17.913Z,5.30
2018-12-09T20:49:46.261Z,5.30
2018-12-09T20:52:14.484Z,5.30
2018-12-09T20:54:42.678Z,5.30
2018-12-09T20:57:10.822Z,5.30
2018-12-09T20:59:39.467Z,5.30
2018-12-09T21:02:07.632Z,5.30
2018-12-09T21:04:35.914Z,5.40
2018-12-09T21:07:04.181Z,5.50
2018-12-09T21:09:32.313Z,5.50
2018-12-09T21:12:00.473Z,5.60
2018-12-09T21:14:28.601Z,5.70
2018-12-09T21:16:56.795Z,5.90
2018-12-09T21:19:25.375Z,6.10
2018-12-09T21:21:53.587Z,6.20
2018-12-09T21:24:25.777Z,6.20
2018-12-09T21:26:51.999Z,6.10
2018-12-09T21:29:20.144Z,6.10
2018-12-09T21:31:48.479Z,5.90
2018-12-09T21:34:16.711Z,5.70
2018-12-09T21:36:44.964Z,5.60
2018-12-09T21:39:13.122Z,5.50
2018-12-09T21:41:41.273Z,5.60
2018-12-09T21:44:09.482Z,5.60
2018-12-09T21:46:38.431Z,5.60
2018-12-09T21:49:06.561Z,5.50
2018-12-09T21:51:34.690Z,5.60
2018-12-09T21:54:02.830Z,5.50
2018-12-09T21:56:31.058Z,5.50
2018-12-09T21:58:59.165Z,5.50
2018-12-09T22:01:27.286Z,5.50
2018-12-09T22:03:55.511Z,5.50
2018-12-09T22:06:23.673Z,5.50
2018-12-09T22:08:52.689Z,5.60
2018-12-09T22:11:20.846Z,5.70
2018-12-09T22:13:49.110Z,5.70
2018-12-09T22:16:17.266Z,5.70
2018-12-09T22:18:45.470Z,5.80
2018-12-09T22:21:13.599Z,5.90
2018-12-09T22:23:41.732Z,6.00
2018-12-09T22:26:09.881Z,6.10
2018-12-09T22:28:38.017Z,6.20
2018-12-09T22:31:06.343Z,6.30
2018-12-09T22:33:34.618Z,6.30
2018-12-09T22:36:02.750Z,6.20
2018-12-09T22:38:31.000Z,6.10
2018-12-09T22:40:59.277Z,5.90
2018-12-09T22:43:27.449Z,5.90
2018-12-09T22:45:55.624Z,5.90
2018-12-09T22:48:23.869Z,5.90
2018-12-09T22:50:52.141Z,5.90
2018-12-09T22:53:20.373Z,5.80
2018-12-09T22:55:48.651Z,5.70
2018-12-09T22:58:16.943Z,5.60
2018-12-09T23:00:52.729Z,5.60
2018-12-09T23:03:20.871Z,5.50
2018-12-09T23:05:49.010Z,5.50
2018-12-09T23:08:17.211Z,5.40
2018-12-09T23:10:45.351Z,5.30
2018-12-09T23:13:13.485Z,5.30
2018-12-09T23:15:41.617Z,5.40
2018-12-09T23:18:09.757Z,5.40
2018-12-09T23:20:37.982Z,5.30
2018-12-09T23:23:06.188Z,5.40
2018-12-09T23:25:34.302Z,5.50
2018-12-09T23:28:02.444Z,5.70
2018-12-09T23:30:30.586Z,5.70
2018-12-09T23:32:58.754Z,5.60
2018-12-09T23:35:26.906Z,5.60
2018-12-09T23:37:55.041Z,5.60
2018-12-09T23:40:23.190Z,5.70
2018-12-09T23:42:52.298Z,5.80
2018-12-09T23:45:20.555Z,5.80
2018-12-09T23:47:48.845Z,5.80
2018-12-09T23:50:16.993Z,5.70
2018-12-09T23:52:45.374Z,5.60
2018-12-09T23:55:13.489Z,5.50
2018-12-09T23:57:41.679Z,5.30
